Time;durP1;ratioP1;P1;durP2;ratioP2;P2;SDS_P1;SDS_P2;PMS_P1;PMS_P2;Temp;Humidity;BMP_temperature;BMP_pressure;BME280_temperature;BME280_humidity;BME280_pressure;Samples;Min_cycle;Max_cycle;Signal;HPM_P1;HPM_P2
2023/01/04 00:01:12;;;;;;;2.30;1.63;;;;;;;20.12;40.15;101666.50;5036751;28;20132;-65
2023/01/04 00:03:37;;;;;;;;;;;;;;;20.08;40.14;101651.09;5035218;28;20143;-65
2023/01/04 00:06:05;;;;;;;2.58;1.80;;;;;;;20.07;40.23;101665.31;5030951;28;20437;-65
2023/01/04 00:08:31;;;;;;;2.65;1.83;;;;;;;20.08;40.12;101649.28;5035621;28;20042;-64
2023/01/04 00:11:05;;;;;;;2.05;1.30;;;;;;;20.00;40.39;101643.97;5033828;28;20105;-65
2023/01/04 00:13:31;;;;;;;3.38;1.50;;;;;;;19.95;40.36;101634.88;5039089;28;20128;-65
2023/01/04 00:16:02;;;;;;;2.13;1.27;;;;;;;19.99;40.10;101626.47;5035946;28;20060;-65
2023/01/04 00:18:29;;;;;;;1.77;1.50;;;;;;;20.06;40.08;101627.47;5032604;28;20041;-65
2023/01/04 00:20:55;;;;;;;3.47;1.80;;;;;;;20.03;40.17;101614.56;5032559;28;20056;-65
2023/01/04 00:23:20;;;;;;;3.28;1.50;;;;;;;20.01;40.11;101621.00;5034208;28;20037;-65
2023/01/04 00:25:46;;;;;;;2.45;1.85;;;;;;;19.95;40.41;101609.28;5031832;28;20048;-64
2023/01/04 00:28:11;;;;;;;1.88;1.55;;;;;;;19.97;40.19;101606.47;5037619;28;20045;-65
2023/01/04 00:30:37;;;;;;;3.45;1.50;;;;;;;20.00;40.15;101606.97;5037349;28;20162;-65
2023/01/04 00:33:02;;;;;;;2.85;1.70;;;;;;;20.01;40.10;101598.03;5037936;28;20069;-64
2023/01/04 00:35:28;;;;;;;3.03;1.50;;;;;;;20.02;40.08;101591.75;5040650;28;20041;-65
2023/01/04 00:37:53;;;;;;;2.35;1.48;;;;;;;20.06;40.01;101582.50;5038925;28;20045;-65
2023/01/04 00:40:19;;;;;;;3.90;1.40;;;;;;;19.97;40.21;101572.94;5040288;28;20469;-65
2023/01/04 00:42:44;;;;;;;1.77;1.58;;;;;;;19.88;40.29;101558.03;5034407;28;20040;-65
2023/01/04 00:45:10;;;;;;;2.25;1.50;;;;;;;19.93;40.25;101571.59;5040399;28;20064;-65
2023/01/04 00:47:35;;;;;;;1.92;1.65;;;;;;;19.97;40.12;101561.53;5037173;28;20041;-64
2023/01/04 00:50:01;;;;;;;1.45;1.33;;;;;;;20.20;39.68;101568.66;5035826;28;22061;-65
2023/01/04 00:52:26;;;;;;;1.77;1.33;;;;;;;20.45;39.28;101558.09;5031810;28;20449;-65
2023/01/04 00:54:52;;;;;;;1.92;1.38;;;;;;;20.69;38.69;101533.47;5037077;28;20045;-65
2023/01/04 00:57:17;;;;;;;2.30;1.15;;;;;;;20.63;38.87;101526.16;5034963;28;20059;-64
2023/01/04 00:59:43;;;;;;;2.17;1.63;;;;;;;20.62;38.98;101517.41;5038066;28;20044;-64
2023/01/04 01:02:08;;;;;;;2.92;1.42;;;;;;;20.54;39.08;101513.97;5033258;28;20056;-65
2023/01/04 01:04:34;;;;;;;2.30;1.42;;;;;;;20.50;39.22;101508.19;5039293;28;20518;-65
2023/01/04 01:07:00;;;;;;;2.28;1.33;;;;;;;20.38;39.42;101501.53;5038117;28;20132;-65
2023/01/04 01:09:25;;;;;;;2.15;1.33;;;;;;;20.42;39.48;101495.78;5028955;28;20036;-65
2023/01/04 01:11:52;;;;;;;1.58;1.13;;;;;;;20.36;39.51;101483.19;5028112;28;20045;-65
2023/01/04 01:14:21;;;;;;;4.00;1.77;;;;;;;20.39;39.51;101484.69;5036807;28;20043;-64
2023/01/04 01:16:46;;;;;;;3.25;1.92;;;;;;;20.43;39.33;101494.78;5028807;28;20048;-65
2023/01/04 01:19:12;;;;;;;2.08;1.60;;;;;;;20.29;39.45;101474.28;5039926;28;20091;-65
2023/01/04 01:21:38;;;;;;;3.38;1.80;;;;;;;20.25;39.74;101477.41;5025966;28;20161;-65
2023/01/04 01:24:04;;;;;;;1.45;1.17;;;;;;;20.32;39.58;101476.59;5026388;28;20044;-64
2023/01/04 01:26:29;;;;;;;2.13;1.50;;;;;;;20.31;39.69;101474.13;5034371;28;20037;-65
2023/01/04 01:28:55;;;;;;;1.85;1.60;;;;;;;20.22;39.80;101478.56;5041322;28;20227;-63
2023/01/04 01:31:23;;;;;;;3.20;1.50;;;;;;;20.22;39.90;101466.19;5032204;28;20040;-64
2023/01/04 01:33:50;;;;;;;1.40;1.30;;;;;;;20.13;40.03;101446.03;5037861;28;20041;-64
2023/01/04 01:36:18;;;;;;;2.20;1.45;;;;;;;20.17;39.84;101459.75;5037379;28;20041;-64
2023/01/04 01:38:44;;;;;;;1.33;1.13;;;;;;;20.20;39.83;101435.59;5035342;28;20040;-65
2023/01/04 01:41:33;;;;;;;2.13;1.58;;;;;;;20.23;39.78;101451.13;5037104;28;20029;-64
2023/01/04 01:44:25;;;;;;;2.05;1.38;;;;;;;20.14;39.77;101433.63;5031699;28;20055;-64
2023/01/04 01:46:53;;;;;;;2.42;1.33;;;;;;;20.11;40.17;101421.59;5032139;28;20068;-65
2023/01/04 01:49:32;;;;;;;2.38;1.45;;;;;;;20.08;40.01;101421.06;5032167;28;20025;-64
2023/01/04 01:52:05;;;;;;;2.45;1.38;;;;;;;20.09;39.99;101415.59;5028999;28;20040;-65
2023/01/04 01:54:35;;;;;;;1.80;1.42;;;;;;;20.06;40.09;101407.19;5032166;28;20049;-65
2023/01/04 01:57:04;;;;;;;2.45;1.30;;;;;;;20.06;40.05;101410.66;5036979;28;20044;-64
2023/01/04 01:59:33;;;;;;;2.38;1.33;;;;;;;20.01;40.24;101397.13;5037956;28;20567;-64
2023/01/04 02:01:58;;;;;;;2.03;1.45;;;;;;;20.04;40.16;101394.16;5035744;28;20037;-64
2023/01/04 02:04:24;;;;;;;2.88;1.63;;;;;;;20.07;40.03;101388.50;5036581;28;20055;-64
2023/01/04 02:06:52;;;;;;;2.38;1.75;;;;;;;20.01;40.19;101369.88;5030512;28;20029;-65
2023/01/04 02:09:19;;;;;;;1.95;1.27;;;;;;;19.94;40.14;101374.19;5029679;28;20036;-65
2023/01/04 02:11:44;;;;;;;1.67;1.20;;;;;;;19.98;40.21;101363.09;5036291;28;20037;-64
2023/01/04 02:14:27;;;;;;;1.98;1.38;;;;;;;19.90;40.53;101353.34;5030586;28;20044;-65
2023/01/04 02:17:18;;;;;;;1.90;1.30;;;;;;;20.00;40.21;101381.44;5034975;28;20053;-64
2023/01/04 02:20:11;;;;;;;1.80;1.27;;;;;;;19.96;40.32;101362.44;5032389;28;20028;-64
2023/01/04 02:23:10;;;;;;;1.58;1.40;;;;;;;19.98;40.27;101355.16;5031650;28;20060;-64
2023/01/04 02:25:56;;;;;;;2.25;1.30;;;;;;;19.95;40.33;101346.75;5017262;28;20056;-65
2023/01/04 02:28:35;;;;;;;2.53;1.48;;;;;;;19.90;40.29;101318.16;5038205;28;20025;-64
2023/01/04 02:31:22;;;;;;;1.50;1.20;;;;;;;19.92;40.33;101334.69;5036221;28;20111;-65
2023/01/04 02:34:22;;;;;;;2.13;1.20;;;;;;;19.92;40.38;101317.00;5030700;28;20037;-65
2023/01/04 02:37:17;;;;;;;1.88;1.17;;;;;;;19.94;40.26;101306.28;5038432;28;20052;-64
2023/01/04 02:40:09;;;;;;;2.53;1.60;;;;;;;20.04;40.11;101300.78;5032779;28;20037;-65
2023/01/04 02:45:48;;;;;;;2.53;1.48;;;;;;;20.50;39.12;101283.31;5036298;28;20044;-64
2023/01/04 02:50:59;;;;;;;1.20;1.10;;;;;;;20.44;39.33;101260.16;5027699;28;20072;-64
2023/01/04 02:53:30;;;;;;;2.30;1.17;;;;;;;20.43;39.37;101267.28;5034155;28;20040;-64
2023/01/04 02:56:05;;;;;;;1.33;0.90;;;;;;;20.40;39.41;101272.88;5036204;28;20037;-64
2023/01/04 02:58:39;;;;;;;2.03;1.17;;;;;;;20.30;39.60;101263.53;5032535;28;20116;-64
2023/01/04 03:07:23;;;;;;;1.75;1.20;;;;;;;20.23;39.88;101252.78;5031226;28;20029;-64
2023/01/04 03:09:54;;;;;;;1.63;1.10;;;;;;;20.15;39.58;101236.97;5035904;28;20041;-64
2023/01/04 03:12:31;;;;;;;1.08;0.98;;;;;;;20.25;39.70;101244.69;5030300;28;20045;-64
2023/01/04 03:15:34;;;;;;;1.55;1.00;;;;;;;20.19;39.98;101236.47;5019497;28;20037;-64
2023/01/04 03:18:26;;;;;;;1.38;1.23;;;;;;;20.09;40.21;101225.25;5019076;28;20443;-64
2023/01/04 03:20:54;;;;;;;1.52;1.30;;;;;;;20.15;40.12;101221.13;5026353;28;20053;-65
2023/01/04 03:37:37;;;;;;;1.33;0.93;;;;;;;20.07;40.19;101184.94;5038671;28;20056;-64
2023/01/04 03:49:08;;;;;;;1.67;1.30;;;;;;;20.08;40.18;101169.91;5035521;28;20156;-63
2023/01/04 03:51:36;;;;;;;1.73;0.80;;;;;;;19.98;40.29;101167.50;5039394;28;20037;-65
2023/01/04 03:54:11;;;;;;;1.27;0.95;;;;;;;20.06;40.24;101177.19;5037364;28;20094;-65
2023/01/04 03:56:40;;;;;;;0.68;0.68;;;;;;;19.97;40.35;101147.34;5028556;28;20165;-63
2023/01/04 03:59:07;;;;;;;2.53;0.93;;;;;;;20.00;40.31;101152.28;5039394;28;20051;-64
2023/01/04 04:01:35;;;;;;;1.95;0.80;;;;;;;19.98;40.41;101150.81;5037084;28;20495;-63
2023/01/04 04:09:29;;;;;;;1.17;0.90;;;;;;;19.93;40.42;101109.03;5038429;28;20080;-62
2023/01/04 04:11:55;;;;;;;1.30;0.90;;;;;;;20.03;40.33;101116.75;5038924;28;20119;-62
2023/01/04 04:14:20;;;;;;;1.40;0.82;;;;;;;20.09;40.15;101118.69;5036624;28;20056;-65
2023/01/04 04:16:46;;;;;;;1.92;0.85;;;;;;;20.31;39.67;101109.97;5033880;28;20054;-62
2023/01/04 04:19:11;;;;;;;0.98;0.75;;;;;;;20.49;39.38;101118.47;5039940;28;20045;-62
2023/01/04 04:21:37;;;;;;;1.23;0.98;;;;;;;20.48;39.43;101116.81;5031902;28;20506;-65
2023/01/04 04:24:03;;;;;;;0.70;0.70;;;;;;;20.40;39.51;101108.88;5038969;28;20130;-63
2023/01/04 04:26:29;;;;;;;1.50;1.00;;;;;;;20.45;39.46;101111.03;5032568;28;20429;-65
2023/01/04 04:28:55;;;;;;;0.82;0.82;;;;;;;20.49;39.59;101107.06;5028046;28;20486;-64
2023/01/04 04:31:20;;;;;;;0.90;0.80;;;;;;;20.30;39.66;101092.44;5041696;28;20040;-64
2023/01/04 04:33:46;;;;;;;0.60;0.60;;;;;;;20.41;39.56;101099.97;5036972;28;20045;-64
2023/01/04 04:36:11;;;;;;;0.88;0.80;;;;;;;20.30;39.90;101075.75;5040283;28;20041;-64
2023/01/04 04:38:37;;;;;;;0.73;0.70;;;;;;;20.32;39.81;101086.97;5042007;28;20040;-65
2023/01/04 04:43:56;;;;;;;0.90;0.80;;;;;;;20.31;39.97;101086.16;5038292;28;20032;-64
2023/01/04 04:46:21;;;;;;;0.55;0.52;;;;;;;20.28;40.19;101075.09;5038808;28;20025;-65
2023/01/04 04:48:47;;;;;;;1.00;0.70;;;;;;;20.13;40.25;101075.88;5030143;28;20052;-64
2023/01/04 04:51:13;;;;;;;0.60;0.60;;;;;;;20.04;40.08;101058.41;5032199;28;20049;-64
2023/01/04 04:53:38;;;;;;;0.60;0.60;;;;;;;20.15;40.25;101079.16;5043709;28;20036;-64
2023/01/04 04:56:05;;;;;;;1.38;0.50;;;;;;;20.13;40.24;101070.59;5033815;28;20110;-64
2023/01/04 04:58:31;;;;;;;0.70;0.60;;;;;;;20.19;40.07;101048.72;5036280;28;20033;-65
2023/01/04 05:00:56;;;;;;;0.60;0.60;;;;;;;20.14;40.26;101072.22;5038244;28;20498;-64
2023/01/04 05:03:21;;;;;;;0.80;0.70;;;;;;;20.08;40.28;101061.50;5034089;28;20033;-64
2023/01/04 05:05:47;;;;;;;0.73;0.68;;;;;;;20.14;40.27;101050.25;5034186;28;20033;-64
2023/01/04 05:08:13;;;;;;;1.10;0.50;;;;;;;20.22;40.15;101052.81;5041081;28;20053;-64
2023/01/04 05:10:38;;;;;;;0.98;0.52;;;;;;;20.12;40.26;101052.25;5034915;28;20067;-64
2023/01/04 05:13:06;;;;;;;0.43;0.43;;;;;;;20.10;40.36;101043.66;5034300;28;20041;-64
2023/01/04 05:15:38;;;;;;;0.98;0.63;;;;;;;20.01;40.55;101040.25;5039386;28;20049;-64
2023/01/04 05:18:05;;;;;;;0.90;0.60;;;;;;;20.05;40.53;101053.94;5039902;28;20077;-64
2023/01/04 05:20:31;;;;;;;0.57;0.40;;;;;;;20.04;40.58;101037.25;5034430;28;20263;-65
2023/01/04 05:22:57;;;;;;;0.57;0.40;;;;;;;20.06;40.43;101029.97;5040166;28;20503;-65
2023/01/04 05:25:23;;;;;;;0.45;0.45;;;;;;;19.99;40.51;101042.25;5037511;28;20044;-64
2023/01/04 05:27:48;;;;;;;0.60;0.60;;;;;;;19.99;40.69;101042.25;5034441;28;20028;-64
2023/01/04 05:32:59;;;;;;;0.35;0.30;;;;;;;19.98;40.55;101029.22;5035096;28;20047;-64
2023/01/04 05:35:25;;;;;;;0.45;0.40;;;;;;;19.94;40.76;101044.59;5035669;28;20036;-64
2023/01/04 05:37:51;;;;;;;0.45;0.45;;;;;;;19.95;40.62;101040.16;5039594;28;20060;-64
2023/01/04 05:40:17;;;;;;;0.65;0.40;;;;;;;19.95;40.73;101046.25;5038710;28;20064;-64
2023/01/04 05:42:42;;;;;;;0.40;0.40;;;;;;;19.92;40.78;101044.75;5037983;28;20091;-64
2023/01/04 05:45:08;;;;;;;0.82;0.82;;;;;;;19.96;40.83;101037.31;5038172;28;20107;-64
2023/01/04 05:47:34;;;;;;;0.68;0.68;;;;;;;20.00;40.61;101038.63;5040877;28;20045;-64
2023/01/04 05:50:00;;;;;;;0.85;0.55;;;;;;;20.12;40.43;101037.22;5034903;28;20036;-64
2023/01/04 05:52:26;;;;;;;1.05;0.40;;;;;;;20.27;40.09;101039.06;5032839;28;20033;-65
2023/01/04 05:54:52;;;;;;;0.28;0.28;;;;;;;20.22;40.29;101034.31;5035468;28;20522;-64
2023/01/04 05:57:17;;;;;;;0.50;0.32;;;;;;;20.27;40.15;101041.72;5029566;28;20036;-65
2023/01/04 05:59:43;;;;;;;0.30;0.30;;;;;;;20.23;40.26;101022.75;5033323;28;20072;-64
2023/01/04 06:02:14;;;;;;;0.30;0.30;;;;;;;20.26;40.29;101034.78;5034418;28;20112;-64
2023/01/04 06:04:39;;;;;;;0.90;0.47;;;;;;;20.22;40.44;101029.84;5034330;28;20094;-64
2023/01/04 06:07:05;;;;;;;0.57;0.45;;;;;;;20.33;40.22;101033.09;5037644;28;20640;-64
2023/01/04 06:09:30;;;;;;;1.65;0.40;;;;;;;20.20;40.33;101016.00;5036828;28;20037;-64
2023/01/04 06:11:56;;;;;;;0.35;0.35;;;;;;;20.17;40.54;101007.59;5031161;28;20044;-64
2023/01/04 06:14:22;;;;;;;1.13;0.47;;;;;;;20.23;40.30;101001.59;5033758;28;20588;-64
2023/01/04 06:16:47;;;;;;;0.93;0.30;;;;;;;20.15;40.71;101023.63;5032077;28;20155;-65
2023/01/04 06:19:13;;;;;;;0.60;0.50;;;;;;;20.19;40.40;101021.44;5035456;28;20049;-64
2023/01/04 06:21:38;;;;;;;0.50;0.40;;;;;;;20.21;40.32;101033.50;5033170;28;20063;-64
2023/01/04 06:24:04;;;;;;;0.50;0.50;;;;;;;20.17;40.50;101037.50;5035313;28;20040;-64
2023/01/04 06:26:29;;;;;;;1.02;0.50;;;;;;;20.16;40.55;101033.22;5030554;28;20172;-64
2023/01/04 06:28:55;;;;;;;0.25;0.25;;;;;;;20.17;40.68;101036.69;5033842;28;20056;-64
2023/01/04 06:31:20;;;;;;;0.80;0.38;;;;;;;20.10;40.74;101047.13;5029404;28;20054;-64
2023/01/04 06:33:46;;;;;;;1.17;0.60;;;;;;;20.14;40.70;101047.59;5036010;28;20041;-64
2023/01/04 06:36:11;;;;;;;0.30;0.30;;;;;;;20.13;40.66;101045.97;5034910;28;20520;-64
2023/01/04 06:38:37;;;;;;;0.28;0.28;;;;;;;20.17;40.70;101040.16;5042757;28;20513;-64
2023/01/04 06:41:02;;;;;;;0.35;0.35;;;;;;;20.18;40.61;101039.16;5028699;28;20041;-64
2023/01/04 06:43:28;;;;;;;0.43;0.30;;;;;;;20.15;40.77;101038.69;5035516;28;20064;-64
2023/01/04 06:45:53;;;;;;;0.30;0.30;;;;;;;20.08;40.95;101045.66;5033278;28;20034;-64
2023/01/04 06:48:19;;;;;;;0.30;0.30;;;;;;;20.13;40.94;101045.97;5036937;28;20093;-64
2023/01/04 06:50:44;;;;;;;0.85;0.35;;;;;;;20.12;40.99;101058.38;5030376;28;20091;-64
2023/01/04 06:53:10;;;;;;;0.30;0.25;;;;;;;20.12;41.03;101033.75;5027177;28;20419;-64
2023/01/04 06:55:35;;;;;;;0.55;0.30;;;;;;;20.11;40.89;101026.81;5031446;28;20053;-64
2023/01/04 06:58:01;;;;;;;0.95;0.60;;;;;;;20.05;41.16;101036.25;5029570;28;20037;-64
2023/01/04 07:00:26;;;;;;;0.55;0.55;;;;;;;20.10;40.88;101030.44;5030300;28;20045;-64
2023/01/04 07:02:52;;;;;;;0.40;0.30;;;;;;;20.12;41.05;101037.22;5033158;28;20068;-64
2023/01/04 07:05:17;;;;;;;0.40;0.25;;;;;;;20.16;41.01;101040.31;5033323;28;20055;-65
2023/01/04 07:07:43;;;;;;;1.17;0.40;;;;;;;20.13;41.09;101028.28;5036173;28;20098;-64
2023/01/04 07:10:09;;;;;;;0.30;0.30;;;;;;;20.07;41.23;101017.56;5033256;28;20127;-65
2023/01/04 07:12:35;;;;;;;0.30;0.30;;;;;;;20.10;41.17;101012.75;5032186;28;20036;-64
2023/01/04 07:15:00;;;;;;;0.60;0.60;;;;;;;20.12;41.20;101002.84;5033225;28;20045;-65
2023/01/04 07:17:26;;;;;;;0.50;0.50;;;;;;;20.06;41.35;101003.53;5037272;28;20048;-64
2023/01/04 07:19:52;;;;;;;0.22;0.22;;;;;;;20.10;41.19;101002.16;5026682;28;20110;-64
2023/01/04 07:22:17;;;;;;;0.20;0.20;;;;;;;20.07;41.37;101007.81;5027304;28;20060;-64
2023/01/04 07:24:43;;;;;;;1.30;0.60;;;;;;;20.09;41.20;101008.47;5036628;28;20434;-64
2023/01/04 07:27:11;;;;;;;0.20;0.20;;;;;;;20.14;41.30;101002.66;5040613;28;20136;-65
2023/01/04 07:29:37;;;;;;;0.55;0.55;;;;;;;20.08;41.37;101008.63;5037636;28;20053;-65
2023/01/04 07:32:03;;;;;;;1.02;0.50;;;;;;;20.08;41.49;100998.06;5025884;28;20044;-64
2023/01/04 07:34:30;;;;;;;0.32;0.32;;;;;;;20.16;41.34;100984.81;5037528;28;20045;-64
2023/01/04 07:36:55;;;;;;;0.45;0.45;;;;;;;20.04;41.62;100987.03;5044303;28;20057;-64
2023/01/04 07:39:21;;;;;;;0.43;0.43;;;;;;;19.99;41.66;100984.09;5036948;28;20080;-64
2023/01/04 07:41:48;;;;;;;0.50;0.50;;;;;;;20.01;41.53;100987.38;5016371;28;20049;-64
2023/01/04 07:44:17;;;;;;;1.73;0.40;;;;;;;20.04;41.61;100999.44;5037812;28;20037;-64
2023/01/04 07:46:42;;;;;;;1.95;0.30;;;;;;;20.10;41.48;100982.84;5032876;28;20547;-64
2023/01/04 07:49:13;;;;;;;0.47;0.47;;;;;;;20.05;41.54;100975.44;5034047;28;20068;-64
2023/01/04 07:51:38;;;;;;;0.17;0.17;;;;;;;20.03;41.62;100989.84;5035344;28;20060;-64
2023/01/04 07:54:04;;;;;;;0.52;0.50;;;;;;;20.01;41.70;100979.47;5037740;28;20679;-64
2023/01/04 07:56:30;;;;;;;0.68;0.28;;;;;;;20.02;41.50;100980.28;5040874;28;20063;-64
2023/01/04 07:58:57;;;;;;;1.38;0.43;;;;;;;20.04;41.56;100986.22;5039527;28;20053;-64
2023/01/04 08:01:24;;;;;;;0.60;0.38;;;;;;;20.05;41.69;100977.28;5042982;28;20052;-64
2023/01/04 08:03:51;;;;;;;0.30;0.30;;;;;;;19.95;41.77;100971.44;5035268;28;20044;-64
2023/01/04 08:06:18;;;;;;;0.77;0.47;;;;;;;19.98;41.78;100974.53;5044600;28;20083;-65
2023/01/04 08:08:44;;;;;;;0.45;0.40;;;;;;;20.03;41.65;100974.00;5038368;28;20055;-64
2023/01/04 08:11:15;;;;;;;1.25;0.40;;;;;;;20.00;41.80;100987.56;5033334;28;20044;-64
2023/01/04 08:13:41;;;;;;;0.38;0.30;;;;;;;19.99;41.78;100981.47;5036634;28;20037;-64
2023/01/04 08:16:23;;;;;;;0.28;0.28;;;;;;;20.01;41.89;100989.22;5036635;28;20068;-64
2023/01/04 08:18:54;;;;;;;1.73;0.20;;;;;;;20.05;41.92;100990.50;5058102;28;20041;-64
2023/01/04 08:21:20;;;;;;;0.60;0.57;;;;;;;20.04;41.77;100984.38;5037376;28;20086;-65
2023/01/04 08:23:46;;;;;;;0.55;0.40;;;;;;;20.01;42.00;100994.50;5027382;28;20630;-65
2023/01/04 08:26:13;;;;;;;0.90;0.30;;;;;;;20.08;41.92;100980.38;5037353;28;20040;-64
2023/01/04 08:28:39;;;;;;;0.50;0.28;;;;;;;20.04;41.86;100980.91;5037945;28;20436;-64
2023/01/04 08:31:15;;;;;;;0.73;0.50;;;;;;;20.11;41.60;100976.59;5035815;28;20143;-65
2023/01/04 08:33:41;;;;;;;0.30;0.20;;;;;;;20.62;40.87;100990.84;5030849;28;20040;-65
2023/01/04 08:36:18;;;;;;;1.08;0.60;;;;;;;21.40;39.08;100986.84;5035200;28;20130;-64
2023/01/04 08:38:44;;;;;;;1.48;0.30;;;;;;;21.50;38.88;100995.28;5035472;28;20051;-64
2023/01/04 08:41:09;;;;;;;0.43;0.40;;;;;;;21.53;38.84;100978.19;5042332;28;20379;-64
2023/01/04 08:43:35;;;;;;;0.40;0.30;;;;;;;21.41;39.21;100980.53;5043707;28;20079;-64
2023/01/04 08:46:02;;;;;;;0.82;0.38;;;;;;;21.33;39.22;100975.31;5035317;28;20045;-64
2023/01/04 08:48:29;;;;;;;0.40;0.28;;;;;;;21.29;39.11;100988.13;5042648;28;20045;-65
2023/01/04 08:50:58;;;;;;;0.30;0.30;;;;;;;21.26;39.49;100985.03;5043145;28;21035;-64
2023/01/04 08:53:23;;;;;;;0.57;0.40;;;;;;;21.02;39.81;100986.94;5035407;28;20410;-64
2023/01/04 08:55:51;;;;;;;1.08;0.32;;;;;;;20.95;39.97;100977.25;5035365;28;20048;-64
2023/01/04 08:58:17;;;;;;;0.90;0.38;;;;;;;20.81;40.48;100984.19;5034777;28;20377;-64
2023/01/04 09:00:43;;;;;;;0.40;0.38;;;;;;;20.77;40.53;100981.09;5033653;28;20048;-64
2023/01/04 09:03:08;;;;;;;0.25;0.25;;;;;;;20.72;40.67;100995.88;5031973;28;20075;-64
2023/01/04 09:05:34;;;;;;;0.80;0.38;;;;;;;20.60;40.93;100990.19;5040893;28;20552;-64
2023/01/04 09:07:59;;;;;;;0.68;0.40;;;;;;;20.56;41.02;100990.75;5038446;28;20053;-64
2023/01/04 09:10:26;;;;;;;1.15;0.68;;;;;;;20.45;41.22;100986.72;5042165;28;20118;-64
2023/01/04 09:12:52;;;;;;;0.22;0.22;;;;;;;20.42;40.99;100979.13;5034029;28;20368;-64
2023/01/04 09:15:18;;;;;;;0.50;0.45;;;;;;;20.36;41.17;100969.25;5038155;28;20487;-64
2023/01/04 09:17:44;;;;;;;0.63;0.45;;;;;;;20.41;41.38;100977.50;5031812;28;20128;-64
2023/01/04 09:20:10;;;;;;;1.73;0.40;;;;;;;20.56;41.42;100983.63;5032090;28;20063;-64
2023/01/04 09:22:36;;;;;;;0.30;0.20;;;;;;;20.43;41.66;100986.88;5036150;28;20072;-65
2023/01/04 09:25:01;;;;;;;1.35;0.35;;;;;;;20.35;41.72;100984.31;5045088;28;20048;-65
2023/01/04 09:27:27;;;;;;;0.30;0.20;;;;;;;20.41;41.53;100994.19;5045104;28;20032;-64
2023/01/04 09:29:52;;;;;;;1.00;0.70;;;;;;;20.34;41.72;100987.13;5034264;28;20052;-64
2023/01/04 09:32:18;;;;;;;1.48;0.50;;;;;;;20.34;41.73;100997.69;5038171;28;20045;-64
2023/01/04 09:34:44;;;;;;;1.05;0.35;;;;;;;20.56;41.45;100996.03;5038180;28;20106;-64
2023/01/04 09:37:09;;;;;;;0.77;0.40;;;;;;;20.75;42.30;100976.97;4977585;28;20875;-64
2023/01/04 09:39:35;;;;;;;1.30;0.30;;;;;;;21.08;41.74;100996.78;5038326;28;20037;-62
2023/01/04 09:42:03;;;;;;;0.77;0.47;;;;;;;21.25;41.33;100986.84;5045535;28;20048;-65
2023/01/04 09:44:40;;;;;;;1.30;0.40;;;;;;;21.20;42.23;100983.09;5031646;28;20036;-65
2023/01/04 09:47:13;;;;;;;1.20;0.40;;;;;;;21.40;41.61;100992.13;5022513;28;20057;-64
2023/01/04 09:49:56;;;;;;;0.38;0.32;;;;;;;21.47;41.22;100976.31;5036380;28;20044;-62
2023/01/04 09:52:33;;;;;;;0.75;0.40;;;;;;;21.39;41.42;100979.91;5031769;28;20040;-63
2023/01/04 09:55:02;;;;;;;2.35;0.50;;;;;;;21.42;41.30;100980.34;5027831;28;20079;-62
2023/01/04 09:57:30;;;;;;;1.13;0.45;;;;;;;21.45;41.52;100968.53;5041165;28;20040;-62
2023/01/04 10:00:15;;;;;;;1.08;0.30;;;;;;;21.44;41.42;100985.44;5033184;28;20033;-63
2023/01/04 10:02:52;;;;;;;1.45;0.40;;;;;;;21.42;41.27;100976.88;5033744;28;20041;-63
2023/01/04 10:05:26;;;;;;;0.60;0.43;;;;;;;21.44;40.71;100977.50;5031974;28;20517;-63
2023/01/04 10:07:52;;;;;;;1.75;0.50;;;;;;;21.45;40.73;101007.47;5036035;28;20025;-63
2023/01/04 10:10:30;;;;;;;0.38;0.38;;;;;;;21.44;40.68;100995.22;5013532;28;20088;-75
2023/01/04 10:13:13;;;;;;;1.05;0.70;;;;;;;21.61;41.03;100999.28;5039440;28;20040;-72
2023/01/04 10:15:57;;;;;;;0.90;0.47;;;;;;;21.40;41.40;100977.06;5040878;28;20068;-75
2023/01/04 10:18:36;;;;;;;0.60;0.40;;;;;;;21.49;41.43;101006.06;5036703;28;20590;-72
2023/01/04 10:21:01;;;;;;;0.85;0.55;;;;;;;21.34;42.11;101004.28;5034002;28;21028;-75
2023/01/04 10:23:51;;;;;;;1.95;0.93;;;;;;;21.52;41.26;100987.97;5029960;28;20030;-75
2023/01/04 10:26:29;;;;;;;0.75;0.60;;;;;;;21.56;40.92;100983.97;5016555;28;20102;-76
2023/01/04 10:29:25;;;;;;;1.27;0.50;;;;;;;21.55;40.90;100995.56;5041490;28;20497;-76
2023/01/04 10:31:57;;;;;;;1.67;0.50;;;;;;;21.58;40.47;100997.84;5032446;28;20848;-76
2023/01/04 10:34:36;;;;;;;0.47;0.40;;;;;;;21.57;40.60;100982.97;5042078;28;20028;-76
2023/01/04 10:37:16;;;;;;;0.90;0.70;;;;;;;21.57;40.74;100982.13;5032720;28;20044;-77
2023/01/04 10:39:44;;;;;;;2.20;0.77;;;;;;;21.75;40.44;100965.81;5036656;28;20514;-74
2023/01/04 10:42:17;;;;;;;1.52;0.65;;;;;;;21.82;40.34;100969.34;5023511;28;20456;-77
2023/01/04 10:44:53;;;;;;;0.55;0.45;;;;;;;21.93;40.08;100968.84;4966280;28;20120;-70
2023/01/04 10:47:31;;;;;;;0.75;0.40;;;;;;;21.97;40.30;100978.88;5025885;28;20032;-71
2023/01/04 10:50:02;;;;;;;2.63;0.75;;;;;;;21.87;40.18;100975.69;5033250;28;20055;-71
2023/01/04 10:52:39;;;;;;;2.20;0.88;;;;;;;21.83;40.76;100976.28;5031530;28;20037;-65
2023/01/04 10:55:14;;;;;;;1.42;0.90;;;;;;;21.78;40.96;100973.38;5030762;28;20729;-67
2023/01/04 10:58:30;;;;;;;2.25;1.20;;;;;;;21.79;41.64;100965.22;5018974;28;20044;-72
2023/01/04 11:01:09;;;;;;;2.83;0.93;;;;;;;21.97;40.57;100954.19;5021018;28;20057;-61
2023/01/04 11:03:44;;;;;;;3.00;1.15;;;;;;;22.07;40.54;100962.66;5036537;28;20081;-67
2023/01/04 11:06:24;;;;;;;2.58;1.27;;;;;;;22.10;40.57;100951.69;5028390;28;20037;-67
2023/01/04 11:08:57;;;;;;;1.90;1.13;;;;;;;22.11;40.39;100941.91;5037066;28;20640;-66
2023/01/04 11:11:39;;;;;;;2.13;1.00;;;;;;;22.17;40.19;100939.28;5041706;28;20029;-65
2023/01/04 11:14:05;;;;;;;3.78;1.45;;;;;;;22.18;40.48;100927.66;4954089;28;20045;-68
2023/01/04 11:16:31;;;;;;;2.97;1.38;;;;;;;22.16;40.50;100897.03;5022213;28;20040;-70
2023/01/04 11:18:57;;;;;;;4.95;1.50;;;;;;;22.21;40.59;100932.56;5045087;28;20103;-68
2023/01/04 11:21:27;;;;;;;3.63;1.42;;;;;;;22.26;40.45;100950.56;5042207;28;20041;-67
2023/01/04 11:23:58;;;;;;;2.25;1.45;;;;;;;22.23;40.61;100930.53;5045763;28;20043;-67
2023/01/04 11:26:31;;;;;;;5.38;1.90;;;;;;;22.28;40.33;100920.19;5047442;28;20091;-72
2023/01/04 11:29:03;;;;;;;3.00;1.52;;;;;;;21.98;40.74;100929.31;5019375;28;20099;-71
2023/01/04 11:31:42;;;;;;;3.83;1.38;;;;;;;22.01;41.07;100918.31;4988367;28;20494;-65
2023/01/04 11:34:08;;;;;;;3.75;1.20;;;;;;;21.98;40.68;100916.88;5010618;28;20046;-66
2023/01/04 11:36:39;;;;;;;4.47;1.33;;;;;;;21.97;40.53;100922.38;5033412;28;20037;-66
2023/01/04 11:39:16;;;;;;;3.20;1.50;;;;;;;21.99;40.76;100926.47;5036338;28;20041;-66
2023/01/04 11:41:54;;;;;;;4.80;1.70;;;;;;;21.94;40.88;100930.72;5039115;28;20045;-66
2023/01/04 11:44:21;;;;;;;5.05;1.48;;;;;;;21.94;40.47;100938.66;5047730;28;20082;-66
2023/01/04 11:47:07;;;;;;;7.65;1.98;;;;;;;21.89;40.91;100930.44;4994692;28;20416;-65
2023/01/04 11:49:35;;;;;;;5.00;1.55;;;;;;;21.90;40.41;100917.03;5007305;28;20128;-73
2023/01/04 11:52:00;;;;;;;4.03;1.60;;;;;;;21.89;40.47;100915.34;5036162;28;20038;-73
2023/01/04 11:54:26;;;;;;;3.53;1.50;;;;;;;21.89;40.72;100927.78;5039215;28;20538;-73
2023/01/04 11:57:00;;;;;;;2.67;1.42;;;;;;;21.90;40.29;100917.03;5042250;28;20040;-73
2023/01/04 11:59:26;;;;;;;4.13;1.50;;;;;;;21.87;40.61;100919.22;5037455;28;20037;-73
2023/01/04 12:02:17;;;;;;;2.47;1.33;;;;;;;21.89;40.61;100909.22;5011511;28;20487;-64
2023/01/04 12:04:42;;;;;;;3.50;1.70;;;;;;;21.89;40.39;100906.56;4988328;28;26059;-63
2023/01/04 12:07:34;;;;;;;4.25;1.45;;;;;;;21.88;40.43;100896.97;5043761;28;20073;-63
2023/01/04 12:10:19;;;;;;;4.28;1.92;;;;;;;21.85;40.61;100906.16;5033442;28;20045;-63
2023/01/04 12:12:44;;;;;;;5.05;1.77;;;;;;;21.82;40.25;100890.63;5030581;28;20811;-63
2023/01/04 12:15:21;;;;;;;3.03;1.55;;;;;;;21.82;40.34;100893.28;5043011;28;20045;-63
2023/01/04 12:18:01;;;;;;;4.00;1.88;;;;;;;21.87;40.49;100900.66;5036615;28;20494;-63
2023/01/04 12:20:30;;;;;;;3.85;1.83;;;;;;;21.83;40.52;100900.22;4988188;28;20032;-71
2023/01/04 12:22:55;;;;;;;3.47;1.48;;;;;;;21.85;40.04;100892.88;5034817;28;20061;-69